sensor_id;sensor_type;location;lat;lon;timestamp;temperature;humidity
49579;DHT22;35483;50.828;3.228;2023-07-13T00:00:28;18.10;71.10
49579;DHT22;35483;50.828;3.228;2023-07-13T00:02:53;18.20;71.30
49579;DHT22;35483;50.828;3.228;2023-07-13T00:05:21;18.20;71.10
49579;DHT22;35483;50.828;3.228;2023-07-13T00:07:47;18.20;71.10
49579;DHT22;35483;50.828;3.228;2023-07-13T00:10:13;18.20;71.30
49579;DHT22;35483;50.828;3.228;2023-07-13T00:12:39;18.10;71.40
49579;DHT22;35483;50.828;3.228;2023-07-13T00:15:12;18.10;71.10
49579;DHT22;35483;50.828;3.228;2023-07-13T00:17:38;18.10;71.50
49579;DHT22;35483;50.828;3.228;2023-07-13T00:20:05;18.10;71.50
49579;DHT22;35483;50.828;3.228;2023-07-13T00:22:32;18.10;71.60
49579;DHT22;35483;50.828;3.228;2023-07-13T00:24:57;18.00;71.40
49579;DHT22;35483;50.828;3.228;2023-07-13T00:27:24;18.00;71.60
49579;DHT22;35483;50.828;3.228;2023-07-13T00:29:52;18.00;71.90
49579;DHT22;35483;50.828;3.228;2023-07-13T00:32:18;18.00;72.20
49579;DHT22;35483;50.828;3.228;2023-07-13T00:34:44;18.00;71.90
49579;DHT22;35483;50.828;3.228;2023-07-13T00:37:10;18.00;71.60
49579;DHT22;35483;50.828;3.228;2023-07-13T00:39:37;18.00;71.60
49579;DHT22;35483;50.828;3.228;2023-07-13T00:42:03;17.90;71.50
49579;DHT22;35483;50.828;3.228;2023-07-13T00:44:30;17.90;72.10
49579;DHT22;35483;50.828;3.228;2023-07-13T00:46:56;17.90;72.00
49579;DHT22;35483;50.828;3.228;2023-07-13T00:49:25;17.80;71.90
49579;DHT22;35483;50.828;3.228;2023-07-13T00:52:02;17.80;71.80
49579;DHT22;35483;50.828;3.228;2023-07-13T00:54:35;17.80;73.10
49579;DHT22;35483;50.828;3.228;2023-07-13T00:57:09;17.80;72.90
49579;DHT22;35483;50.828;3.228;2023-07-13T00:59:36;17.80;72.20
49579;DHT22;35483;50.828;3.228;2023-07-13T01:02:05;17.80;72.80
49579;DHT22;35483;50.828;3.228;2023-07-13T01:04:31;17.70;72.80
49579;DHT22;35483;50.828;3.228;2023-07-13T01:06:57;17.70;72.60
49579;DHT22;35483;50.828;3.228;2023-07-13T01:09:25;17.70;72.40
49579;DHT22;35483;50.828;3.228;2023-07-13T01:11:51;17.70;72.20
49579;DHT22;35483;50.828;3.228;2023-07-13T01:14:17;17.70;72.20
49579;DHT22;35483;50.828;3.228;2023-07-13T01:16:46;17.70;72.20
49579;DHT22;35483;50.828;3.228;2023-07-13T01:21:50;17.60;73.10
49579;DHT22;35483;50.828;3.228;2023-07-13T01:24:16;17.60;72.80
49579;DHT22;35483;50.828;3.228;2023-07-13T01:26:42;17.60;72.60
49579;DHT22;35483;50.828;3.228;2023-07-13T01:29:08;17.60;72.60
49579;DHT22;35483;50.828;3.228;2023-07-13T01:31:34;17.60;72.70
49579;DHT22;35483;50.828;3.228;2023-07-13T01:34:00;17.60;72.80
49579;DHT22;35483;50.828;3.228;2023-07-13T01:36:26;17.60;73.20
49579;DHT22;35483;50.828;3.228;2023-07-13T01:38:52;17.50;73.30
49579;DHT22;35483;50.828;3.228;2023-07-13T01:41:18;17.60;72.70
49579;DHT22;35483;50.828;3.228;2023-07-13T01:43:43;17.50;73.20
49579;DHT22;35483;50.828;3.228;2023-07-13T01:46:09;17.50;72.70
49579;DHT22;35483;50.828;3.228;2023-07-13T01:48:35;17.50;72.90
49579;DHT22;35483;50.828;3.228;2023-07-13T01:51:01;17.50;72.80
49579;DHT22;35483;50.828;3.228;2023-07-13T01:53:28;17.50;73.40
49579;DHT22;35483;50.828;3.228;2023-07-13T01:55:54;17.50;73.20
49579;DHT22;35483;50.828;3.228;2023-07-13T01:58:20;17.50;73.00
49579;DHT22;35483;50.828;3.228;2023-07-13T02:00:48;17.50;73.30
49579;DHT22;35483;50.828;3.228;2023-07-13T02:03:15;17.50;73.70
49579;DHT22;35483;50.828;3.228;2023-07-13T02:05:44;17.50;73.50
49579;DHT22;35483;50.828;3.228;2023-07-13T02:08:12;17.50;73.10
49579;DHT22;35483;50.828;3.228;2023-07-13T02:10:38;17.40;73.80
49579;DHT22;35483;50.828;3.228;2023-07-13T02:13:06;17.40;73.50
49579;DHT22;35483;50.828;3.228;2023-07-13T02:15:32;17.40;73.90
49579;DHT22;35483;50.828;3.228;2023-07-13T02:17:57;17.40;73.60
49579;DHT22;35483;50.828;3.228;2023-07-13T02:20:24;17.40;74.10
49579;DHT22;35483;50.828;3.228;2023-07-13T02:22:51;17.40;74.00
49579;DHT22;35483;50.828;3.228;2023-07-13T02:25:17;17.40;73.90
49579;DHT22;35483;50.828;3.228;2023-07-13T02:27:43;17.40;73.90
49579;DHT22;35483;50.828;3.228;2023-07-13T02:30:09;17.40;73.90
49579;DHT22;35483;50.828;3.228;2023-07-13T02:32:36;17.40;74.20
49579;DHT22;35483;50.828;3.228;2023-07-13T02:35:01;17.30;74.30
49579;DHT22;35483;50.828;3.228;2023-07-13T02:37:28;17.30;74.20
49579;DHT22;35483;50.828;3.228;2023-07-13T02:39:55;17.30;73.90
49579;DHT22;35483;50.828;3.228;2023-07-13T02:42:21;17.30;74.30
49579;DHT22;35483;50.828;3.228;2023-07-13T02:44:46;17.20;74.20
49579;DHT22;35483;50.828;3.228;2023-07-13T02:47:12;17.20;74.70
49579;DHT22;35483;50.828;3.228;2023-07-13T02:49:38;17.20;74.00
49579;DHT22;35483;50.828;3.228;2023-07-13T02:52:05;17.20;74.20
49579;DHT22;35483;50.828;3.228;2023-07-13T02:54:30;17.20;74.40
49579;DHT22;35483;50.828;3.228;2023-07-13T02:56:56;17.20;74.30
49579;DHT22;35483;50.828;3.228;2023-07-13T02:59:22;17.20;74.30
49579;DHT22;35483;50.828;3.228;2023-07-13T03:01:47;17.20;74.50
49579;DHT22;35483;50.828;3.228;2023-07-13T03:04:13;17.10;74.20
49579;DHT22;35483;50.828;3.228;2023-07-13T03:06:39;17.10;74.10
49579;DHT22;35483;50.828;3.228;2023-07-13T03:09:05;17.10;74.50
49579;DHT22;35483;50.828;3.228;2023-07-13T03:11:31;17.10;74.60
49579;DHT22;35483;50.828;3.228;2023-07-13T03:13:57;17.10;74.50
49579;DHT22;35483;50.828;3.228;2023-07-13T03:16:23;17.10;74.40
49579;DHT22;35483;50.828;3.228;2023-07-13T03:18:49;17.10;74.60
49579;DHT22;35483;50.828;3.228;2023-07-13T03:21:15;17.10;74.60
49579;DHT22;35483;50.828;3.228;2023-07-13T03:23:41;17.00;74.20
49579;DHT22;35483;50.828;3.228;2023-07-13T03:26:11;17.00;74.50
49579;DHT22;35483;50.828;3.228;2023-07-13T03:28:38;17.00;74.30
49579;DHT22;35483;50.828;3.228;2023-07-13T03:31:07;17.00;74.50
49579;DHT22;35483;50.828;3.228;2023-07-13T03:33:33;17.00;74.90
49579;DHT22;35483;50.828;3.228;2023-07-13T03:36:03;17.00;74.60
49579;DHT22;35483;50.828;3.228;2023-07-13T03:38:29;17.00;74.70
49579;DHT22;35483;50.828;3.228;2023-07-13T03:40:55;17.10;74.40
49579;DHT22;35483;50.828;3.228;2023-07-13T03:43:21;17.10;74.60
49579;DHT22;35483;50.828;3.228;2023-07-13T03:45:47;17.20;75.00
49579;DHT22;35483;50.828;3.228;2023-07-13T03:48:13;17.20;74.70
49579;DHT22;35483;50.828;3.228;2023-07-13T03:50:39;17.30;74.50
49579;DHT22;35483;50.828;3.228;2023-07-13T03:53:04;17.30;74.40
49579;DHT22;35483;50.828;3.228;2023-07-13T03:55:30;17.30;74.90
49579;DHT22;35483;50.828;3.228;2023-07-13T03:58:06;17.40;74.60
49579;DHT22;35483;50.828;3.228;2023-07-13T04:00:45;17.50;75.10
49579;DHT22;35483;50.828;3.228;2023-07-13T04:03:11;17.50;74.20
49579;DHT22;35483;50.828;3.228;2023-07-13T04:05:37;17.50;74.20
49579;DHT22;35483;50.828;3.228;2023-07-13T04:08:06;17.60;74.80
49579;DHT22;35483;50.828;3.228;2023-07-13T04:10:32;17.60;74.40
49579;DHT22;35483;50.828;3.228;2023-07-13T04:12:57;17.60;74.30
49579;DHT22;35483;50.828;3.228;2023-07-13T04:15:23;17.60;75.00
49579;DHT22;35483;50.828;3.228;2023-07-13T04:17:49;17.60;74.70
49579;DHT22;35483;50.828;3.228;2023-07-13T04:20:15;17.70;74.50
49579;DHT22;35483;50.828;3.228;2023-07-13T04:22:40;17.70;74.60
49579;DHT22;35483;50.828;3.228;2023-07-13T04:25:06;17.70;74.40
49579;DHT22;35483;50.828;3.228;2023-07-13T04:27:33;17.70;74.60
49579;DHT22;35483;50.828;3.228;2023-07-13T04:30:00;17.80;75.20
49579;DHT22;35483;50.828;3.228;2023-07-13T04:32:26;17.80;74.80
49579;DHT22;35483;50.828;3.228;2023-07-13T04:34:51;17.80;74.90
49579;DHT22;35483;50.828;3.228;2023-07-13T04:37:19;17.80;74.80
49579;DHT22;35483;50.828;3.228;2023-07-13T04:39:45;17.90;74.90
49579;DHT22;35483;50.828;3.228;2023-07-13T04:42:11;17.90;74.90
49579;DHT22;35483;50.828;3.228;2023-07-13T04:44:37;17.90;74.90
49579;DHT22;35483;50.828;3.228;2023-07-13T04:47:03;18.00;74.80
49579;DHT22;35483;50.828;3.228;2023-07-13T04:49:28;18.10;75.10
49579;DHT22;35483;50.828;3.228;2023-07-13T04:51:54;18.10;75.00
49579;DHT22;35483;50.828;3.228;2023-07-13T04:54:20;18.10;75.00
49579;DHT22;35483;50.828;3.228;2023-07-13T04:56:47;18.10;74.50
49579;DHT22;35483;50.828;3.228;2023-07-13T04:59:12;18.20;74.80
49579;DHT22;35483;50.828;3.228;2023-07-13T05:01:38;18.20;74.70
49579;DHT22;35483;50.828;3.228;2023-07-13T05:04:04;18.20;74.80
49579;DHT22;35483;50.828;3.228;2023-07-13T05:06:30;18.20;74.90
49579;DHT22;35483;50.828;3.228;2023-07-13T05:08:56;18.30;75.40
49579;DHT22;35483;50.828;3.228;2023-07-13T05:11:22;18.30;75.20
49579;DHT22;35483;50.828;3.228;2023-07-13T05:13:48;18.30;75.00
49579;DHT22;35483;50.828;3.228;2023-07-13T05:16:14;18.30;75.10
49579;DHT22;35483;50.828;3.228;2023-07-13T05:18:39;18.30;74.90
49579;DHT22;35483;50.828;3.228;2023-07-13T05:21:07;18.40;75.10
49579;DHT22;35483;50.828;3.228;2023-07-13T05:23:34;18.50;75.20
49579;DHT22;35483;50.828;3.228;2023-07-13T05:26:00;18.50;75.20
49579;DHT22;35483;50.828;3.228;2023-07-13T05:28:27;18.60;74.90
49579;DHT22;35483;50.828;3.228;2023-07-13T05:30:53;18.60;75.00
49579;DHT22;35483;50.828;3.228;2023-07-13T05:33:20;18.60;75.10
49579;DHT22;35483;50.828;3.228;2023-07-13T05:35:46;18.70;74.80
49579;DHT22;35483;50.828;3.228;2023-07-13T05:38:11;18.70;75.10
49579;DHT22;35483;50.828;3.228;2023-07-13T05:40:37;18.70;75.50
49579;DHT22;35483;50.828;3.228;2023-07-13T05:43:03;18.70;75.20
49579;DHT22;35483;50.828;3.228;2023-07-13T05:45:29;18.80;74.80
49579;DHT22;35483;50.828;3.228;2023-07-13T05:47:55;18.80;74.90
49579;DHT22;35483;50.828;3.228;2023-07-13T05:50:20;18.80;74.90
49579;DHT22;35483;50.828;3.228;2023-07-13T05:52:46;18.80;75.00
49579;DHT22;35483;50.828;3.228;2023-07-13T05:55:12;18.90;75.00
49579;DHT22;35483;50.828;3.228;2023-07-13T05:57:38;18.90;75.00
49579;DHT22;35483;50.828;3.228;2023-07-13T06:00:05;19.00;74.90
49579;DHT22;35483;50.828;3.228;2023-07-13T06:02:31;19.00;75.20
49579;DHT22;35483;50.828;3.228;2023-07-13T06:04:56;19.00;75.00
49579;DHT22;35483;50.828;3.228;2023-07-13T06:07:22;19.10;75.00
49579;DHT22;35483;50.828;3.228;2023-07-13T06:09:48;19.20;75.20
49579;DHT22;35483;50.828;3.228;2023-07-13T06:12:13;19.20;75.10
49579;DHT22;35483;50.828;3.228;2023-07-13T06:14:40;19.40;75.20
49579;DHT22;35483;50.828;3.228;2023-07-13T06:17:06;19.40;75.10
49579;DHT22;35483;50.828;3.228;2023-07-13T06:19:31;19.40;75.20
49579;DHT22;35483;50.828;3.228;2023-07-13T06:21:57;19.50;74.90
49579;DHT22;35483;50.828;3.228;2023-07-13T06:24:24;19.60;75.00
49579;DHT22;35483;50.828;3.228;2023-07-13T06:26:49;19.60;74.90
49579;DHT22;35483;50.828;3.228;2023-07-13T06:29:15;19.70;75.20
49579;DHT22;35483;50.828;3.228;2023-07-13T06:31:41;19.70;75.00
49579;DHT22;35483;50.828;3.228;2023-07-13T06:34:06;19.80;74.90
49579;DHT22;35483;50.828;3.228;2023-07-13T06:36:32;19.90;74.70
49579;DHT22;35483;50.828;3.228;2023-07-13T06:38:58;19.90;74.80
49579;DHT22;35483;50.828;3.228;2023-07-13T06:41:23;20.00;74.80
49579;DHT22;35483;50.828;3.228;2023-07-13T06:43:51;20.10;74.80
49579;DHT22;35483;50.828;3.228;2023-07-13T06:46:18;20.10;74.80
49579;DHT22;35483;50.828;3.228;2023-07-13T06:48:43;20.10;74.60
49579;DHT22;35483;50.828;3.228;2023-07-13T06:51:09;20.20;74.50
49579;DHT22;35483;50.828;3.228;2023-07-13T06:53:34;20.20;74.80
49579;DHT22;35483;50.828;3.228;2023-07-13T06:56:00;20.20;74.50
49579;DHT22;35483;50.828;3.228;2023-07-13T06:58:26;20.30;74.50
49579;DHT22;35483;50.828;3.228;2023-07-13T07:00:52;20.40;74.90
49579;DHT22;35483;50.828;3.228;2023-07-13T07:03:18;20.50;74.40
49579;DHT22;35483;50.828;3.228;2023-07-13T07:05:44;20.70;74.20
49579;DHT22;35483;50.828;3.228;2023-07-13T07:08:10;20.90;74.00
49579;DHT22;35483;50.828;3.228;2023-07-13T07:10:35;21.00;73.70
49579;DHT22;35483;50.828;3.228;2023-07-13T07:13:02;21.30;73.70
49579;DHT22;35483;50.828;3.228;2023-07-13T07:15:28;21.40;73.40
49579;DHT22;35483;50.828;3.228;2023-07-13T07:17:53;21.50;73.40
49579;DHT22;35483;50.828;3.228;2023-07-13T07:20:19;21.60;73.40
49579;DHT22;35483;50.828;3.228;2023-07-13T07:22:46;21.70;73.50
49579;DHT22;35483;50.828;3.228;2023-07-13T07:25:12;21.80;73.40
49579;DHT22;35483;50.828;3.228;2023-07-13T07:27:38;21.90;73.40
49579;DHT22;35483;50.828;3.228;2023-07-13T07:30:04;22.00;73.30
49579;DHT22;35483;50.828;3.228;2023-07-13T07:32:30;22.10;73.30
49579;DHT22;35483;50.828;3.228;2023-07-13T07:34:59;22.10;73.20
49579;DHT22;35483;50.828;3.228;2023-07-13T07:37:25;22.10;73.20
49579;DHT22;35483;50.828;3.228;2023-07-13T07:39:51;22.10;73.00
49579;DHT22;35483;50.828;3.228;2023-07-13T07:42:17;22.10;73.30
49579;DHT22;35483;50.828;3.228;2023-07-13T07:44:42;22.10;73.30
49579;DHT22;35483;50.828;3.228;2023-07-13T07:47:09;22.10;74.00
49579;DHT22;35483;50.828;3.228;2023-07-13T07:49:36;22.10;73.40
49579;DHT22;35483;50.828;3.228;2023-07-13T07:52:02;22.10;73.50
49579;DHT22;35483;50.828;3.228;2023-07-13T07:54:27;22.10;73.40
49579;DHT22;35483;50.828;3.228;2023-07-13T07:56:53;22.20;73.30
49579;DHT22;35483;50.828;3.228;2023-07-13T07:59:19;22.30;73.30
49579;DHT22;35483;50.828;3.228;2023-07-13T08:01:45;22.40;73.20
49579;DHT22;35483;50.828;3.228;2023-07-13T08:04:13;22.40;73.10
49579;DHT22;35483;50.828;3.228;2023-07-13T08:06:39;22.50;72.90
49579;DHT22;35483;50.828;3.228;2023-07-13T08:09:05;22.60;73.00
49579;DHT22;35483;50.828;3.228;2023-07-13T08:11:31;22.60;72.90
49579;DHT22;35483;50.828;3.228;2023-07-13T08:13:57;22.60;72.80
49579;DHT22;35483;50.828;3.228;2023-07-13T08:16:23;22.70;73.30
49579;DHT22;35483;50.828;3.228;2023-07-13T08:18:49;22.70;72.60
49579;DHT22;35483;50.828;3.228;2023-07-13T08:21:14;22.80;72.60
49579;DHT22;35483;50.828;3.228;2023-07-13T08:23:40;22.80;72.70
49579;DHT22;35483;50.828;3.228;2023-07-13T08:26:06;22.90;72.80
49579;DHT22;35483;50.828;3.228;2023-07-13T08:28:33;23.00;72.80
49579;DHT22;35483;50.828;3.228;2023-07-13T08:31:04;23.10;72.70
49579;DHT22;35483;50.828;3.228;2023-07-13T08:33:30;23.20;72.90
49579;DHT22;35483;50.828;3.228;2023-07-13T08:35:56;23.20;72.70
49579;DHT22;35483;50.828;3.228;2023-07-13T08:38:22;23.30;72.60
49579;DHT22;35483;50.828;3.228;2023-07-13T08:40:56;23.30;73.10
49579;DHT22;35483;50.828;3.228;2023-07-13T08:43:28;23.30;72.40
49579;DHT22;35483;50.828;3.228;2023-07-13T08:48:56;23.30;72.40
49579;DHT22;35483;50.828;3.228;2023-07-13T08:54:03;23.30;72.40
49579;DHT22;35483;50.828;3.228;2023-07-13T08:56:31;23.30;72.40
49579;DHT22;35483;50.828;3.228;2023-07-13T08:59:05;23.20;72.40
49579;DHT22;35483;50.828;3.228;2023-07-13T09:04:32;23.10;72.10
49579;DHT22;35483;50.828;3.228;2023-07-13T09:07:09;23.00;72.20
49579;DHT22;35483;50.828;3.228;2023-07-13T09:15:25;22.90;72.60
49579;DHT22;35483;50.828;3.228;2023-07-13T09:17:52;22.90;72.60
49579;DHT22;35483;50.828;3.228;2023-07-13T09:20:36;22.90;72.60
49579;DHT22;35483;50.828;3.228;2023-07-13T09:23:09;22.80;72.70
49579;DHT22;35483;50.828;3.228;2023-07-13T09:25:36;22.80;72.70
49579;DHT22;35483;50.828;3.228;2023-07-13T09:28:12;22.70;72.70
49579;DHT22;35483;50.828;3.228;2023-07-13T09:33:29;22.80;72.80
49579;DHT22;35483;50.828;3.228;2023-07-13T09:35:59;22.80;72.90
49579;DHT22;35483;50.828;3.228;2023-07-13T09:38:28;22.90;73.00
49579;DHT22;35483;50.828;3.228;2023-07-13T09:43:39;23.10;72.70
49579;DHT22;35483;50.828;3.228;2023-07-13T09:46:27;23.20;72.60
49579;DHT22;35483;50.828;3.228;2023-07-13T09:48:55;23.30;72.40
49579;DHT22;35483;50.828;3.228;2023-07-13T09:51:21;23.40;72.50
49579;DHT22;35483;50.828;3.228;2023-07-13T09:53:47;23.40;72.50
49579;DHT22;35483;50.828;3.228;2023-07-13T09:56:26;23.60;72.50
49579;DHT22;35483;50.828;3.228;2023-07-13T09:58:52;23.70;72.10
49579;DHT22;35483;50.828;3.228;2023-07-13T10:01:35;23.90;72.10
49579;DHT22;35483;50.828;3.228;2023-07-13T10:04:02;24.10;71.20
49579;DHT22;35483;50.828;3.228;2023-07-13T10:06:35;24.20;71.80
49579;DHT22;35483;50.828;3.228;2023-07-13T10:09:01;24.30;71.70
49579;DHT22;35483;50.828;3.228;2023-07-13T10:11:29;24.40;71.70
49579;DHT22;35483;50.828;3.228;2023-07-13T10:14:00;24.40;71.30
49579;DHT22;35483;50.828;3.228;2023-07-13T10:16:33;24.30;71.40
49579;DHT22;35483;50.828;3.228;2023-07-13T10:19:02;23.90;72.10
49579;DHT22;35483;50.828;3.228;2023-07-13T10:21:35;23.30;72.70
49579;DHT22;35483;50.828;3.228;2023-07-13T10:24:10;22.40;73.80
49579;DHT22;35483;50.828;3.228;2023-07-13T10:26:39;21.60;74.30
49579;DHT22;35483;50.828;3.228;2023-07-13T10:29:11;21.10;74.70
49579;DHT22;35483;50.828;3.228;2023-07-13T10:31:40;20.90;75.10
49579;DHT22;35483;50.828;3.228;2023-07-13T10:34:11;20.80;74.90
49579;DHT22;35483;50.828;3.228;2023-07-13T10:36:46;20.80;76.40
49579;DHT22;35483;50.828;3.228;2023-07-13T10:39:30;20.90;77.00
49579;DHT22;35483;50.828;3.228;2023-07-13T10:42:00;21.20;79.40
49579;DHT22;35483;50.828;3.228;2023-07-13T10:44:29;21.40;75.40
49579;DHT22;35483;50.828;3.228;2023-07-13T10:47:08;21.60;75.10
49579;DHT22;35483;50.828;3.228;2023-07-13T10:49:39;21.80;75.10
49579;DHT22;35483;50.828;3.228;2023-07-13T10:52:20;22.00;75.00
49579;DHT22;35483;50.828;3.228;2023-07-13T10:54:51;22.20;74.70
49579;DHT22;35483;50.828;3.228;2023-07-13T10:57:19;22.50;74.60
49579;DHT22;35483;50.828;3.228;2023-07-13T11:02:30;22.90;76.80
49579;DHT22;35483;50.828;3.228;2023-07-13T11:04:58;23.10;74.20
49579;DHT22;35483;50.828;3.228;2023-07-13T11:07:52;23.10;74.40
49579;DHT22;35483;50.828;3.228;2023-07-13T11:10:50;23.00;76.20
49579;DHT22;35483;50.828;3.228;2023-07-13T11:16:00;23.10;79.50
49579;DHT22;35483;50.828;3.228;2023-07-13T11:18:26;23.10;75.00
49579;DHT22;35483;50.828;3.228;2023-07-13T11:20:52;23.20;75.00
49579;DHT22;35483;50.828;3.228;2023-07-13T11:23:42;23.20;74.90
49579;DHT22;35483;50.828;3.228;2023-07-13T11:31:57;23.40;76.20
49579;DHT22;35483;50.828;3.228;2023-07-13T11:34:36;23.40;75.10
49579;DHT22;35483;50.828;3.228;2023-07-13T11:37:12;23.30;75.10
49579;DHT22;35483;50.828;3.228;2023-07-13T11:39:48;23.30;75.20
49579;DHT22;35483;50.828;3.228;2023-07-13T11:42:48;23.30;74.90
49579;DHT22;35483;50.828;3.228;2023-07-13T11:45:20;23.40;75.60
49579;DHT22;35483;50.828;3.228;2023-07-13T11:47:49;23.40;74.20
49579;DHT22;35483;50.828;3.228;2023-07-13T11:50:23;23.30;74.20
49579;DHT22;35483;50.828;3.228;2023-07-13T11:52:51;23.30;74.00
49579;DHT22;35483;50.828;3.228;2023-07-13T11:55:20;23.30;73.70
49579;DHT22;35483;50.828;3.228;2023-07-13T12:00:22;23.30;73.10
49579;DHT22;35483;50.828;3.228;2023-07-13T12:02:51;23.30;73.60
49579;DHT22;35483;50.828;3.228;2023-07-13T12:05:19;23.40;73.70
49579;DHT22;35483;50.828;3.228;2023-07-13T12:07:46;23.50;73.50
49579;DHT22;35483;50.828;3.228;2023-07-13T12:10:20;23.60;73.30
49579;DHT22;35483;50.828;3.228;2023-07-13T12:13:04;23.60;73.10
49579;DHT22;35483;50.828;3.228;2023-07-13T12:15:43;23.60;73.20
49579;DHT22;35483;50.828;3.228;2023-07-13T12:18:21;23.70;72.90
49579;DHT22;35483;50.828;3.228;2023-07-13T12:20:48;23.70;71.70
49579;DHT22;35483;50.828;3.228;2023-07-13T12:23:33;23.80;73.10
49579;DHT22;35483;50.828;3.228;2023-07-13T12:26:03;23.90;72.60
49579;DHT22;35483;50.828;3.228;2023-07-13T12:28:52;24.00;73.00
49579;DHT22;35483;50.828;3.228;2023-07-13T12:34:24;24.30;72.70
49579;DHT22;35483;50.828;3.228;2023-07-13T12:41:48;24.40;72.40
49579;DHT22;35483;50.828;3.228;2023-07-13T12:44:17;24.40;72.00
49579;DHT22;35483;50.828;3.228;2023-07-13T12:47:03;24.50;72.10
49579;DHT22;35483;50.828;3.228;2023-07-13T12:49:31;24.60;71.00
49579;DHT22;35483;50.828;3.228;2023-07-13T12:52:02;24.70;71.90
49579;DHT22;35483;50.828;3.228;2023-07-13T12:54:29;24.70;71.50
49579;DHT22;35483;50.828;3.228;2023-07-13T12:56:57;24.70;71.70
49579;DHT22;35483;50.828;3.228;2023-07-13T12:59:27;24.80;71.70
49579;DHT22;35483;50.828;3.228;2023-07-13T13:01:54;24.90;71.10
49579;DHT22;35483;50.828;3.228;2023-07-13T13:04:20;25.00;71.30
49579;DHT22;35483;50.828;3.228;2023-07-13T13:06:48;25.00;71.20
49579;DHT22;35483;50.828;3.228;2023-07-13T13:09:15;25.00;70.90
49579;DHT22;35483;50.828;3.228;2023-07-13T13:11:42;25.10;70.90
49579;DHT22;35483;50.828;3.228;2023-07-13T13:14:09;25.20;70.90
49579;DHT22;35483;50.828;3.228;2023-07-13T13:16:57;25.30;71.10
49579;DHT22;35483;50.828;3.228;2023-07-13T13:19:28;25.40;70.80
49579;DHT22;35483;50.828;3.228;2023-07-13T13:21:55;25.60;69.80
49579;DHT22;35483;50.828;3.228;2023-07-13T13:24:25;25.70;70.40
49579;DHT22;35483;50.828;3.228;2023-07-13T13:26:52;25.60;70.40
49579;DHT22;35483;50.828;3.228;2023-07-13T13:29:20;25.60;70.30
49579;DHT22;35483;50.828;3.228;2023-07-13T13:31:49;25.50;70.40
49579;DHT22;35483;50.828;3.228;2023-07-13T13:34:17;25.50;70.70
49579;DHT22;35483;50.828;3.228;2023-07-13T13:36:44;25.40;70.60
49579;DHT22;35483;50.828;3.228;2023-07-13T13:41:44;25.20;67.40
49579;DHT22;35483;50.828;3.228;2023-07-13T13:44:10;25.10;70.10
49579;DHT22;35483;50.828;3.228;2023-07-13T13:46:36;24.90;70.10
49579;DHT22;35483;50.828;3.228;2023-07-13T13:49:01;24.80;70.40
49579;DHT22;35483;50.828;3.228;2023-07-13T13:51:28;24.80;70.10
49579;DHT22;35483;50.828;3.228;2023-07-13T13:53:55;24.70;70.40
49579;DHT22;35483;50.828;3.228;2023-07-13T13:56:21;24.70;70.50
49579;DHT22;35483;50.828;3.228;2023-07-13T13:58:47;24.70;70.30
49579;DHT22;35483;50.828;3.228;2023-07-13T14:01:17;24.70;70.30
49579;DHT22;35483;50.828;3.228;2023-07-13T14:03:44;24.70;70.00
49579;DHT22;35483;50.828;3.228;2023-07-13T14:06:14;24.70;70.30
49579;DHT22;35483;50.828;3.228;2023-07-13T14:08:40;24.60;70.20
49579;DHT22;35483;50.828;3.228;2023-07-13T14:11:15;24.60;70.30
49579;DHT22;35483;50.828;3.228;2023-07-13T14:13:51;24.70;70.10
49579;DHT22;35483;50.828;3.228;2023-07-13T14:16:20;24.70;70.10
49579;DHT22;35483;50.828;3.228;2023-07-13T14:18:47;24.70;70.10
49579;DHT22;35483;50.828;3.228;2023-07-13T14:21:22;24.70;70.40
49579;DHT22;35483;50.828;3.228;2023-07-13T14:23:48;24.80;69.40
49579;DHT22;35483;50.828;3.228;2023-07-13T14:26:24;24.90;69.60
49579;DHT22;35483;50.828;3.228;2023-07-13T14:28:55;25.00;69.50
49579;DHT22;35483;50.828;3.228;2023-07-13T14:31:24;25.00;69.20
49579;DHT22;35483;50.828;3.228;2023-07-13T14:33:50;25.10;69.30
49579;DHT22;35483;50.828;3.228;2023-07-13T14:36:35;25.10;69.30
49579;DHT22;35483;50.828;3.228;2023-07-13T14:39:09;25.10;64.80
49579;DHT22;35483;50.828;3.228;2023-07-13T14:41:35;25.00;68.90
49579;DHT22;35483;50.828;3.228;2023-07-13T14:44:00;25.00;69.80
49579;DHT22;35483;50.828;3.228;2023-07-13T14:46:31;25.00;69.40
49579;DHT22;35483;50.828;3.228;2023-07-13T14:49:04;25.00;68.80
49579;DHT22;35483;50.828;3.228;2023-07-13T14:51:31;25.00;69.00
49579;DHT22;35483;50.828;3.228;2023-07-13T14:54:01;24.90;69.30
49579;DHT22;35483;50.828;3.228;2023-07-13T14:56:27;24.90;69.40
49579;DHT22;35483;50.828;3.228;2023-07-13T14:58:53;25.00;69.40
49579;DHT22;35483;50.828;3.228;2023-07-13T15:01:19;25.00;69.20
49579;DHT22;35483;50.828;3.228;2023-07-13T15:03:50;25.10;69.20
49579;DHT22;35483;50.828;3.228;2023-07-13T15:06:16;25.20;69.00
49579;DHT22;35483;50.828;3.228;2023-07-13T15:08:42;25.20;68.90
49579;DHT22;35483;50.828;3.228;2023-07-13T15:11:09;25.10;68.90
49579;DHT22;35483;50.828;3.228;2023-07-13T15:13:39;25.00;68.70
49579;DHT22;35483;50.828;3.228;2023-07-13T15:16:13;24.90;69.20
49579;DHT22;35483;50.828;3.228;2023-07-13T15:18:40;24.90;68.10
49579;DHT22;35483;50.828;3.228;2023-07-13T15:21:10;24.70;69.20
49579;DHT22;35483;50.828;3.228;2023-07-13T15:23:36;24.80;69.10
49579;DHT22;35483;50.828;3.228;2023-07-13T15:26:01;24.80;69.20
49579;DHT22;35483;50.828;3.228;2023-07-13T15:28:28;24.90;68.70
49579;DHT22;35483;50.828;3.228;2023-07-13T15:30:54;24.90;68.80
49579;DHT22;35483;50.828;3.228;2023-07-13T15:33:27;24.80;68.70
49579;DHT22;35483;50.828;3.228;2023-07-13T15:35:55;24.80;68.90
49579;DHT22;35483;50.828;3.228;2023-07-13T15:38:27;24.80;68.60
49579;DHT22;35483;50.828;3.228;2023-07-13T15:40:53;24.80;68.00
49579;DHT22;35483;50.828;3.228;2023-07-13T15:43:20;24.80;68.50
49579;DHT22;35483;50.828;3.228;2023-07-13T15:45:47;24.90;68.40
49579;DHT22;35483;50.828;3.228;2023-07-13T15:48:23;24.90;68.40
49579;DHT22;35483;50.828;3.228;2023-07-13T15:50:54;24.90;67.50
49579;DHT22;35483;50.828;3.228;2023-07-13T15:53:25;24.90;65.70
49579;DHT22;35483;50.828;3.228;2023-07-13T15:55:52;24.80;67.90
49579;DHT22;35483;50.828;3.228;2023-07-13T15:58:19;24.80;68.30
49579;DHT22;35483;50.828;3.228;2023-07-13T16:00:45;24.70;68.30
49579;DHT22;35483;50.828;3.228;2023-07-13T16:03:11;24.70;68.40
49579;DHT22;35483;50.828;3.228;2023-07-13T16:05:38;24.70;68.60
49579;DHT22;35483;50.828;3.228;2023-07-13T16:08:05;24.70;68.50
49579;DHT22;35483;50.828;3.228;2023-07-13T16:10:35;24.80;68.40
49579;DHT22;35483;50.828;3.228;2023-07-13T16:13:15;24.80;68.50
49579;DHT22;35483;50.828;3.228;2023-07-13T16:15:42;24.90;68.40
49579;DHT22;35483;50.828;3.228;2023-07-13T16:18:11;25.00;68.30
49579;DHT22;35483;50.828;3.228;2023-07-13T16:20:38;25.10;68.10
49579;DHT22;35483;50.828;3.228;2023-07-13T16:23:04;25.10;68.10